sensor_id;sensor_type;location;lat;lon;timestamp;pressure;altitude;pressure_sealevel;temperature
71428;BMP280;59246;59.102;37.928;2022-07-22T00:00:21;100016.19;;;18.05
71428;BMP280;59246;59.102;37.928;2022-07-22T00:02:48;100018.09;;;18.04
71428;BMP280;59246;59.102;37.928;2022-07-22T00:05:16;100021.38;;;18.01
71428;BMP280;59246;59.102;37.928;2022-07-22T00:07:42;100024.88;;;18.01
71428;BMP280;59246;59.102;37.928;2022-07-22T00:10:09;100025.19;;;18.00
71428;BMP280;59246;59.102;37.928;2022-07-22T00:12:36;100037.84;;;17.99
71428;BMP280;59246;59.102;37.928;2022-07-22T00:15:03;100029.78;;;17.99
71428;BMP280;59246;59.102;37.928;2022-07-22T00:17:29;100034.81;;;18.01
71428;BMP280;59246;59.102;37.928;2022-07-22T00:19:55;100030.91;;;17.98
71428;BMP280;59246;59.102;37.928;2022-07-22T00:22:23;100033.91;;;17.97
71428;BMP280;59246;59.102;37.928;2022-07-22T00:24:50;100036.13;;;17.95
71428;BMP280;59246;59.102;37.928;2022-07-22T00:27:16;100039.97;;;17.94
71428;BMP280;59246;59.102;37.928;2022-07-22T00:29:42;100036.00;;;17.91
71428;BMP280;59246;59.102;37.928;2022-07-22T00:32:07;100038.25;;;17.89
71428;BMP280;59246;59.102;37.928;2022-07-22T00:34:33;100024.34;;;17.87
71428;BMP280;59246;59.102;37.928;2022-07-22T00:36:59;100026.25;;;17.87
71428;BMP280;59246;59.102;37.928;2022-07-22T00:39:24;100028.13;;;17.86
71428;BMP280;59246;59.102;37.928;2022-07-22T00:41:50;100029.59;;;17.83
71428;BMP280;59246;59.102;37.928;2022-07-22T00:44:17;100034.97;;;17.83
71428;BMP280;59246;59.102;37.928;2022-07-22T00:46:43;100038.28;;;17.80
71428;BMP280;59246;59.102;37.928;2022-07-22T00:49:10;100035.16;;;17.78
71428;BMP280;59246;59.102;37.928;2022-07-22T00:51:36;100026.97;;;17.75
71428;BMP280;59246;59.102;37.928;2022-07-22T00:54:05;100032.66;;;17.73
71428;BMP280;59246;59.102;37.928;2022-07-22T00:56:31;100038.34;;;17.72
71428;BMP280;59246;59.102;37.928;2022-07-22T00:58:59;100032.16;;;17.71
71428;BMP280;59246;59.102;37.928;2022-07-22T01:01:25;100033.31;;;17.70
71428;BMP280;59246;59.102;37.928;2022-07-22T01:03:52;100030.97;;;17.69
71428;BMP280;59246;59.102;37.928;2022-07-22T01:06:18;100040.56;;;17.70
71428;BMP280;59246;59.102;37.928;2022-07-22T01:08:43;100040.88;;;17.68
71428;BMP280;59246;59.102;37.928;2022-07-22T01:11:18;100037.88;;;17.70
71428;BMP280;59246;59.102;37.928;2022-07-22T01:13:45;100035.19;;;17.70
71428;BMP280;59246;59.102;37.928;2022-07-22T01:16:12;100042.13;;;17.71
71428;BMP280;59246;59.102;37.928;2022-07-22T01:18:38;100040.88;;;17.68
71428;BMP280;59246;59.102;37.928;2022-07-22T01:21:05;100040.56;;;17.70
71428;BMP280;59246;59.102;37.928;2022-07-22T01:23:31;100039.00;;;17.69
71428;BMP280;59246;59.102;37.928;2022-07-22T01:25:57;100046.72;;;17.70
71428;BMP280;59246;59.102;37.928;2022-07-22T01:28:23;100054.13;;;17.73
71428;BMP280;59246;59.102;37.928;2022-07-22T01:30:49;100045.75;;;17.75
71428;BMP280;59246;59.102;37.928;2022-07-22T01:33:19;100042.41;;;17.78
71428;BMP280;59246;59.102;37.928;2022-07-22T01:35:45;100058.22;;;17.79
71428;BMP280;59246;59.102;37.928;2022-07-22T01:38:12;100050.59;;;17.81
71428;BMP280;59246;59.102;37.928;2022-07-22T01:40:38;100056.44;;;17.83
71428;BMP280;59246;59.102;37.928;2022-07-22T01:43:04;100050.41;;;17.87
71428;BMP280;59246;59.102;37.928;2022-07-22T01:45:30;100054.78;;;17.91
71428;BMP280;59246;59.102;37.928;2022-07-22T01:47:56;100052.88;;;17.92
71428;BMP280;59246;59.102;37.928;2022-07-22T01:50:23;100050.69;;;17.94
71428;BMP280;59246;59.102;37.928;2022-07-22T01:52:49;100052.72;;;17.97
71428;BMP280;59246;59.102;37.928;2022-07-22T01:55:15;100052.50;;;18.02
71428;BMP280;59246;59.102;37.928;2022-07-22T01:57:41;100058.03;;;18.06
71428;BMP280;59246;59.102;37.928;2022-07-22T02:00:07;100055.78;;;18.08
71428;BMP280;59246;59.102;37.928;2022-07-22T02:02:35;100068.91;;;18.09
71428;BMP280;59246;59.102;37.928;2022-07-22T02:05:02;100058.94;;;18.10
71428;BMP280;59246;59.102;37.928;2022-07-22T02:07:28;100066.00;;;18.14
71428;BMP280;59246;59.102;37.928;2022-07-22T02:09:54;100062.66;;;18.17
71428;BMP280;59246;59.102;37.928;2022-07-22T02:12:20;100058.19;;;18.21
71428;BMP280;59246;59.102;37.928;2022-07-22T02:14:46;100063.72;;;18.25
71428;BMP280;59246;59.102;37.928;2022-07-22T02:17:12;100067.63;;;18.28
71428;BMP280;59246;59.102;37.928;2022-07-22T02:19:40;100066.31;;;18.34
71428;BMP280;59246;59.102;37.928;2022-07-22T02:22:08;100066.47;;;18.37
71428;BMP280;59246;59.102;37.928;2022-07-22T02:24:34;100068.56;;;18.44
71428;BMP280;59246;59.102;37.928;2022-07-22T02:27:04;100063.38;;;18.48
71428;BMP280;59246;59.102;37.928;2022-07-22T02:29:34;100055.09;;;18.53
71428;BMP280;59246;59.102;37.928;2022-07-22T02:32:02;100052.97;;;18.58
71428;BMP280;59246;59.102;37.928;2022-07-22T02:34:31;100057.00;;;18.64
71428;BMP280;59246;59.102;37.928;2022-07-22T02:37:00;100059.50;;;18.70
71428;BMP280;59246;59.102;37.928;2022-07-22T02:39:27;100067.34;;;18.75
71428;BMP280;59246;59.102;37.928;2022-07-22T02:41:53;100063.22;;;18.77
71428;BMP280;59246;59.102;37.928;2022-07-22T02:44:19;100057.97;;;18.81
71428;BMP280;59246;59.102;37.928;2022-07-22T02:46:45;100054.59;;;18.84
71428;BMP280;59246;59.102;37.928;2022-07-22T02:49:11;100055.81;;;18.86
71428;BMP280;59246;59.102;37.928;2022-07-22T02:51:37;100052.50;;;18.90
71428;BMP280;59246;59.102;37.928;2022-07-22T02:54:03;100055.72;;;18.95
71428;BMP280;59246;59.102;37.928;2022-07-22T02:56:29;100068.19;;;19.00
71428;BMP280;59246;59.102;37.928;2022-07-22T02:58:55;100065.94;;;19.02
71428;BMP280;59246;59.102;37.928;2022-07-22T03:01:21;100070.00;;;19.08
71428;BMP280;59246;59.102;37.928;2022-07-22T03:03:47;100067.09;;;19.13
71428;BMP280;59246;59.102;37.928;2022-07-22T03:06:13;100063.72;;;19.16
71428;BMP280;59246;59.102;37.928;2022-07-22T03:08:38;100059.25;;;19.20
71428;BMP280;59246;59.102;37.928;2022-07-22T03:11:05;100055.53;;;19.25
71428;BMP280;59246;59.102;37.928;2022-07-22T03:13:31;100054.84;;;19.28
71428;BMP280;59246;59.102;37.928;2022-07-22T03:15:57;100065.75;;;19.32
71428;BMP280;59246;59.102;37.928;2022-07-22T03:18:22;100058.56;;;19.36
71428;BMP280;59246;59.102;37.928;2022-07-22T03:20:48;100054.50;;;19.42
71428;BMP280;59246;59.102;37.928;2022-07-22T03:23:14;100062.47;;;19.51
71428;BMP280;59246;59.102;37.928;2022-07-22T03:25:40;100069.09;;;19.53
71428;BMP280;59246;59.102;37.928;2022-07-22T03:28:06;100066.16;;;19.58
71428;BMP280;59246;59.102;37.928;2022-07-22T03:30:32;100069.84;;;19.66
71428;BMP280;59246;59.102;37.928;2022-07-22T03:32:58;100069.19;;;19.69
71428;BMP280;59246;59.102;37.928;2022-07-22T03:35:24;100077.38;;;19.73
71428;BMP280;59246;59.102;37.928;2022-07-22T03:37:50;100074.78;;;19.76
71428;BMP280;59246;59.102;37.928;2022-07-22T03:40:15;100075.22;;;19.78
71428;BMP280;59246;59.102;37.928;2022-07-22T03:42:41;100069.84;;;19.78
71428;BMP280;59246;59.102;37.928;2022-07-22T03:45:08;100065.22;;;19.79
71428;BMP280;59246;59.102;37.928;2022-07-22T03:47:34;100072.97;;;19.80
71428;BMP280;59246;59.102;37.928;2022-07-22T03:49:59;100077.91;;;19.78
71428;BMP280;59246;59.102;37.928;2022-07-22T03:52:27;100065.22;;;19.79
71428;BMP280;59246;59.102;37.928;2022-07-22T03:54:54;100067.91;;;19.79
71428;BMP280;59246;59.102;37.928;2022-07-22T03:57:20;100067.25;;;19.82
71428;BMP280;59246;59.102;37.928;2022-07-22T03:59:46;100073.19;;;19.87
71428;BMP280;59246;59.102;37.928;2022-07-22T04:02:13;100072.25;;;19.96
71428;BMP280;59246;59.102;37.928;2022-07-22T04:04:41;100072.66;;;20.10
71428;BMP280;59246;59.102;37.928;2022-07-22T04:07:09;100068.72;;;20.20
71428;BMP280;59246;59.102;37.928;2022-07-22T04:09:34;100062.03;;;20.29
71428;BMP280;59246;59.102;37.928;2022-07-22T04:12:00;100064.22;;;20.40
71428;BMP280;59246;59.102;37.928;2022-07-22T04:14:27;100061.91;;;20.54
71428;BMP280;59246;59.102;37.928;2022-07-22T04:16:54;100060.72;;;20.67
71428;BMP280;59246;59.102;37.928;2022-07-22T04:19:20;100061.50;;;20.84
71428;BMP280;59246;59.102;37.928;2022-07-22T04:21:46;100062.88;;;20.93
71428;BMP280;59246;59.102;37.928;2022-07-22T04:24:11;100066.09;;;20.99
71428;BMP280;59246;59.102;37.928;2022-07-22T04:26:37;100066.22;;;21.03
71428;BMP280;59246;59.102;37.928;2022-07-22T04:29:04;100065.75;;;21.17
71428;BMP280;59246;59.102;37.928;2022-07-22T04:31:30;100061.56;;;21.54
71428;BMP280;59246;59.102;37.928;2022-07-22T04:33:57;100065.34;;;21.69
71428;BMP280;59246;59.102;37.928;2022-07-22T04:36:23;100073.91;;;21.71
71428;BMP280;59246;59.102;37.928;2022-07-22T04:38:48;100080.03;;;21.68
71428;BMP280;59246;59.102;37.928;2022-07-22T04:41:15;100076.84;;;21.66
71428;BMP280;59246;59.102;37.928;2022-07-22T04:43:40;100072.25;;;21.67
71428;BMP280;59246;59.102;37.928;2022-07-22T04:46:06;100069.13;;;21.65
71428;BMP280;59246;59.102;37.928;2022-07-22T04:48:32;100073.38;;;21.66
71428;BMP280;59246;59.102;37.928;2022-07-22T04:50:59;100069.63;;;21.70
71428;BMP280;59246;59.102;37.928;2022-07-22T04:53:26;100067.44;;;21.76
71428;BMP280;59246;59.102;37.928;2022-07-22T04:55:52;100077.94;;;21.81
71428;BMP280;59246;59.102;37.928;2022-07-22T04:58:18;100077.22;;;21.84
71428;BMP280;59246;59.102;37.928;2022-07-22T05:00:44;100070.00;;;21.88
71428;BMP280;59246;59.102;37.928;2022-07-22T05:03:12;100074.63;;;21.88
71428;BMP280;59246;59.102;37.928;2022-07-22T05:05:41;100083.56;;;21.92
71428;BMP280;59246;59.102;37.928;2022-07-22T05:08:08;100076.75;;;21.98
71428;BMP280;59246;59.102;37.928;2022-07-22T05:10:34;100084.63;;;22.07
71428;BMP280;59246;59.102;37.928;2022-07-22T05:12:59;100090.16;;;22.14
71428;BMP280;59246;59.102;37.928;2022-07-22T05:15:25;100081.78;;;22.19
71428;BMP280;59246;59.102;37.928;2022-07-22T05:17:51;100080.38;;;22.25
71428;BMP280;59246;59.102;37.928;2022-07-22T05:20:17;100082.75;;;22.30
71428;BMP280;59246;59.102;37.928;2022-07-22T05:22:43;100079.03;;;22.38
71428;BMP280;59246;59.102;37.928;2022-07-22T05:25:08;100083.78;;;22.45
71428;BMP280;59246;59.102;37.928;2022-07-22T05:27:34;100083.88;;;22.49
71428;BMP280;59246;59.102;37.928;2022-07-22T05:30:00;100084.72;;;22.53
71428;BMP280;59246;59.102;37.928;2022-07-22T05:32:27;100080.91;;;22.57
71428;BMP280;59246;59.102;37.928;2022-07-22T05:34:54;100075.22;;;22.62
71428;BMP280;59246;59.102;37.928;2022-07-22T05:37:21;100073.41;;;22.70
71428;BMP280;59246;59.102;37.928;2022-07-22T05:39:49;100075.09;;;22.78
71428;BMP280;59246;59.102;37.928;2022-07-22T05:42:15;100080.25;;;22.87
71428;BMP280;59246;59.102;37.928;2022-07-22T05:44:40;100075.75;;;22.95
71428;BMP280;59246;59.102;37.928;2022-07-22T05:47:06;100068.50;;;23.02
71428;BMP280;59246;59.102;37.928;2022-07-22T05:49:32;100070.22;;;23.14
71428;BMP280;59246;59.102;37.928;2022-07-22T05:51:57;100067.63;;;23.21
71428;BMP280;59246;59.102;37.928;2022-07-22T05:54:26;100071.56;;;23.27
71428;BMP280;59246;59.102;37.928;2022-07-22T05:56:51;100076.25;;;23.31
71428;BMP280;59246;59.102;37.928;2022-07-22T05:59:17;100070.09;;;23.34
71428;BMP280;59246;59.102;37.928;2022-07-22T06:01:43;100069.38;;;23.37
71428;BMP280;59246;59.102;37.928;2022-07-22T06:04:08;100074.09;;;23.43
71428;BMP280;59246;59.102;37.928;2022-07-22T06:06:34;100077.22;;;23.45
71428;BMP280;59246;59.102;37.928;2022-07-22T06:09:00;100087.72;;;23.50
71428;BMP280;59246;59.102;37.928;2022-07-22T06:11:25;100084.75;;;23.59
71428;BMP280;59246;59.102;37.928;2022-07-22T06:13:51;100077.09;;;23.68
71428;BMP280;59246;59.102;37.928;2022-07-22T06:16:17;100078.00;;;23.76
71428;BMP280;59246;59.102;37.928;2022-07-22T06:18:44;100082.72;;;23.86
71428;BMP280;59246;59.102;37.928;2022-07-22T06:21:11;100072.78;;;23.94
71428;BMP280;59246;59.102;37.928;2022-07-22T06:23:36;100072.09;;;24.04
71428;BMP280;59246;59.102;37.928;2022-07-22T06:26:02;100077.22;;;24.13
71428;BMP280;59246;59.102;37.928;2022-07-22T06:28:29;100077.69;;;24.19
71428;BMP280;59246;59.102;37.928;2022-07-22T06:30:56;100085.47;;;24.24
71428;BMP280;59246;59.102;37.928;2022-07-22T06:33:29;100078.94;;;24.28
71428;BMP280;59246;59.102;37.928;2022-07-22T06:36:00;100079.31;;;24.30
71428;BMP280;59246;59.102;37.928;2022-07-22T06:38:30;100071.63;;;24.36
71428;BMP280;59246;59.102;37.928;2022-07-22T06:40:57;100075.19;;;24.40
71428;BMP280;59246;59.102;37.928;2022-07-22T06:43:30;100068.59;;;24.45
71428;BMP280;59246;59.102;37.928;2022-07-22T06:46:03;100072.13;;;24.49
71428;BMP280;59246;59.102;37.928;2022-07-22T06:48:29;100080.31;;;24.56
71428;BMP280;59246;59.102;37.928;2022-07-22T06:50:59;100083.47;;;24.62
71428;BMP280;59246;59.102;37.928;2022-07-22T06:53:25;100081.56;;;24.69
71428;BMP280;59246;59.102;37.928;2022-07-22T06:55:51;100087.44;;;24.75
71428;BMP280;59246;59.102;37.928;2022-07-22T06:58:17;100082.09;;;24.82
71428;BMP280;59246;59.102;37.928;2022-07-22T07:00:42;100084.84;;;24.89
71428;BMP280;59246;59.102;37.928;2022-07-22T07:03:08;100086.84;;;24.99
71428;BMP280;59246;59.102;37.928;2022-07-22T07:05:34;100088.81;;;25.06
71428;BMP280;59246;59.102;37.928;2022-07-22T07:08:00;100084.56;;;25.12
71428;BMP280;59246;59.102;37.928;2022-07-22T07:10:25;100080.34;;;25.18
71428;BMP280;59246;59.102;37.928;2022-07-22T07:12:55;100074.56;;;25.23
71428;BMP280;59246;59.102;37.928;2022-07-22T07:15:21;100088.19;;;25.31
71428;BMP280;59246;59.102;37.928;2022-07-22T07:17:47;100089.38;;;25.37
71428;BMP280;59246;59.102;37.928;2022-07-22T07:20:12;100095.63;;;25.41
71428;BMP280;59246;59.102;37.928;2022-07-22T07:22:38;100086.31;;;25.45
71428;BMP280;59246;59.102;37.928;2022-07-22T07:25:06;100077.00;;;25.50
71428;BMP280;59246;59.102;37.928;2022-07-22T07:27:32;100089.84;;;25.53
71428;BMP280;59246;59.102;37.928;2022-07-22T07:29:57;100085.19;;;25.57
71428;BMP280;59246;59.102;37.928;2022-07-22T07:32:23;100092.22;;;25.65
71428;BMP280;59246;59.102;37.928;2022-07-22T07:34:49;100091.44;;;25.68
71428;BMP280;59246;59.102;37.928;2022-07-22T07:37:14;100088.34;;;25.70
71428;BMP280;59246;59.102;37.928;2022-07-22T07:39:40;100088.75;;;25.79
71428;BMP280;59246;59.102;37.928;2022-07-22T07:42:06;100088.03;;;25.97
71428;BMP280;59246;59.102;37.928;2022-07-22T07:44:32;100088.44;;;26.13
71428;BMP280;59246;59.102;37.928;2022-07-22T07:46:58;100079.13;;;26.28
71428;BMP280;59246;59.102;37.928;2022-07-22T07:49:23;100080.69;;;26.44
71428;BMP280;59246;59.102;37.928;2022-07-22T07:51:49;100069.38;;;26.56
71428;BMP280;59246;59.102;37.928;2022-07-22T07:54:15;100070.53;;;26.69
71428;BMP280;59246;59.102;37.928;2022-07-22T07:56:41;100083.38;;;26.80
71428;BMP280;59246;59.102;37.928;2022-07-22T07:59:06;100081.78;;;26.93
71428;BMP280;59246;59.102;37.928;2022-07-22T08:01:32;100070.44;;;27.05
71428;BMP280;59246;59.102;37.928;2022-07-22T08:03:58;100070.78;;;27.14
71428;BMP280;59246;59.102;37.928;2022-07-22T08:06:24;100069.66;;;27.08
71428;BMP280;59246;59.102;37.928;2022-07-22T08:08:49;100075.91;;;27.05
71428;BMP280;59246;59.102;37.928;2022-07-22T08:11:15;100078.63;;;27.02
71428;BMP280;59246;59.102;37.928;2022-07-22T08:13:41;100077.09;;;27.04
71428;BMP280;59246;59.102;37.928;2022-07-22T08:16:07;100079.03;;;27.07
71428;BMP280;59246;59.102;37.928;2022-07-22T08:18:33;100073.16;;;27.12
71428;BMP280;59246;59.102;37.928;2022-07-22T08:20:58;100069.28;;;27.13
71428;BMP280;59246;59.102;37.928;2022-07-22T08:23:28;100067.69;;;27.19
71428;BMP280;59246;59.102;37.928;2022-07-22T08:25:57;100057.94;;;27.26
71428;BMP280;59246;59.102;37.928;2022-07-22T08:28:24;100070.34;;;27.37
71428;BMP280;59246;59.102;37.928;2022-07-22T08:30:51;100071.09;;;27.45
71428;BMP280;59246;59.102;37.928;2022-07-22T08:33:17;100071.84;;;27.45
71428;BMP280;59246;59.102;37.928;2022-07-22T08:35:43;100068.34;;;27.45
71428;BMP280;59246;59.102;37.928;2022-07-22T08:38:09;100064.41;;;27.50
71428;BMP280;59246;59.102;37.928;2022-07-22T08:40:35;100065.97;;;27.54
71428;BMP280;59246;59.102;37.928;2022-07-22T08:43:01;100064.34;;;27.67
71428;BMP280;59246;59.102;37.928;2022-07-22T08:45:29;100051.03;;;27.77
71428;BMP280;59246;59.102;37.928;2022-07-22T08:47:55;100070.88;;;27.81
71428;BMP280;59246;59.102;37.928;2022-07-22T08:50:21;100076.72;;;27.83
71428;BMP280;59246;59.102;37.928;2022-07-22T08:52:47;100066.91;;;27.93
71428;BMP280;59246;59.102;37.928;2022-07-22T08:55:13;100067.19;;;28.05
71428;BMP280;59246;59.102;37.928;2022-07-22T08:57:44;100068.75;;;28.06
71428;BMP280;59246;59.102;37.928;2022-07-22T09:00:13;100067.59;;;28.00
71428;BMP280;59246;59.102;37.928;2022-07-22T09:02:40;100073.50;;;27.95
71428;BMP280;59246;59.102;37.928;2022-07-22T09:05:09;100065.78;;;27.86
71428;BMP280;59246;59.102;37.928;2022-07-22T09:07:36;100072.38;;;27.85
71428;BMP280;59246;59.102;37.928;2022-07-22T09:10:10;100068.47;;;27.90
71428;BMP280;59246;59.102;37.928;2022-07-22T09:12:51;100064.88;;;28.00
71428;BMP280;59246;59.102;37.928;2022-07-22T09:15:28;100061.69;;;28.13
71428;BMP280;59246;59.102;37.928;2022-07-22T09:17:55;100063.84;;;28.32
71428;BMP280;59246;59.102;37.928;2022-07-22T09:20:21;100063.69;;;28.50
71428;BMP280;59246;59.102;37.928;2022-07-22T09:22:49;100063.47;;;28.71
71428;BMP280;59246;59.102;37.928;2022-07-22T09:25:28;100063.69;;;28.84
71428;BMP280;59246;59.102;37.928;2022-07-22T09:28:19;100068.63;;;28.96
71428;BMP280;59246;59.102;37.928;2022-07-22T09:30:50;100069.38;;;29.00
71428;BMP280;59246;59.102;37.928;2022-07-22T09:33:18;100064.06;;;28.90
71428;BMP280;59246;59.102;37.928;2022-07-22T09:35:45;100066.53;;;28.77
71428;BMP280;59246;59.102;37.928;2022-07-22T09:38:12;100075.97;;;28.69
71428;BMP280;59246;59.102;37.928;2022-07-22T09:40:41;100074.09;;;28.62
71428;BMP280;59246;59.102;37.928;2022-07-22T09:43:09;100075.66;;;28.63
71428;BMP280;59246;59.102;37.928;2022-07-22T09:46:04;100072.88;;;28.67
71428;BMP280;59246;59.102;37.928;2022-07-22T09:48:30;100072.81;;;28.74
71428;BMP280;59246;59.102;37.928;2022-07-22T09:50:57;100071.22;;;28.76
71428;BMP280;59246;59.102;37.928;2022-07-22T09:53:25;100071.56;;;28.82
71428;BMP280;59246;59.102;37.928;2022-07-22T09:55:53;100069.44;;;28.93
71428;BMP280;59246;59.102;37.928;2022-07-22T09:58:19;100077.09;;;29.06
71428;BMP280;59246;59.102;37.928;2022-07-22T10:00:45;100084.34;;;29.23
71428;BMP280;59246;59.102;37.928;2022-07-22T10:03:26;100061.72;;;29.50
71428;BMP280;59246;59.102;37.928;2022-07-22T10:05:54;100069.91;;;29.77
71428;BMP280;59246;59.102;37.928;2022-07-22T10:08:20;100075.69;;;30.06
71428;BMP280;59246;59.102;37.928;2022-07-22T10:10:46;100075.03;;;30.42
71428;BMP280;59246;59.102;37.928;2022-07-22T10:13:12;100075.38;;;30.87
71428;BMP280;59246;59.102;37.928;2022-07-22T10:15:38;100075.63;;;31.29
71428;BMP280;59246;59.102;37.928;2022-07-22T10:18:13;100068.72;;;31.57
71428;BMP280;59246;59.102;37.928;2022-07-22T10:20:40;100079.78;;;31.53
71428;BMP280;59246;59.102;37.928;2022-07-22T10:23:07;100076.22;;;31.37
71428;BMP280;59246;59.102;37.928;2022-07-22T10:25:55;100081.78;;;31.17
71428;BMP280;59246;59.102;37.928;2022-07-22T10:28:36;100079.13;;;30.73
71428;BMP280;59246;59.102;37.928;2022-07-22T10:31:23;100086.50;;;30.13
71428;BMP280;59246;59.102;37.928;2022-07-22T10:33:51;100070.78;;;29.70
71428;BMP280;59246;59.102;37.928;2022-07-22T10:36:35;100080.09;;;29.49
71428;BMP280;59246;59.102;37.928;2022-07-22T10:39:07;100079.00;;;29.43
71428;BMP280;59246;59.102;37.928;2022-07-22T10:41:40;100075.44;;;29.73
71428;BMP280;59246;59.102;37.928;2022-07-22T10:44:06;100071.47;;;30.21
71428;BMP280;59246;59.102;37.928;2022-07-22T10:46:50;100071.13;;;30.82
71428;BMP280;59246;59.102;37.928;2022-07-22T10:49:17;100068.34;;;31.39
71428;BMP280;59246;59.102;37.928;2022-07-22T10:52:09;100061.22;;;31.90
71428;BMP280;59246;59.102;37.928;2022-07-22T10:57:39;100060.50;;;32.61
71428;BMP280;59246;59.102;37.928;2022-07-22T11:00:06;100058.69;;;32.96
71428;BMP280;59246;59.102;37.928;2022-07-22T11:02:34;100060.09;;;33.13
71428;BMP280;59246;59.102;37.928;2022-07-22T11:05:01;100059.13;;;33.20
71428;BMP280;59246;59.102;37.928;2022-07-22T11:07:27;100068.03;;;33.24
71428;BMP280;59246;59.102;37.928;2022-07-22T11:10:08;100051.84;;;33.39
71428;BMP280;59246;59.102;37.928;2022-07-22T11:12:34;100059.88;;;33.46
71428;BMP280;59246;59.102;37.928;2022-07-22T11:15:03;100054.44;;;33.55
71428;BMP280;59246;59.102;37.928;2022-07-22T11:17:31;100054.56;;;33.52
71428;BMP280;59246;59.102;37.928;2022-07-22T11:20:18;100045.94;;;33.62
71428;BMP280;59246;59.102;37.928;2022-07-22T11:22:46;100046.94;;;33.68
71428;BMP280;59246;59.102;37.928;2022-07-22T11:25:14;100049.97;;;33.83
71428;BMP280;59246;59.102;37.928;2022-07-22T11:27:50;100040.50;;;34.06
71428;BMP280;59246;59.102;37.928;2022-07-22T11:30:16;100046.69;;;34.20
71428;BMP280;59246;59.102;37.928;2022-07-22T11:32:42;100039.91;;;34.33
71428;BMP280;59246;59.102;37.928;2022-07-22T11:35:11;100043.97;;;34.51
71428;BMP280;59246;59.102;37.928;2022-07-22T11:37:37;100046.16;;;34.56
71428;BMP280;59246;59.102;37.928;2022-07-22T11:40:06;100041.59;;;34.62
71428;BMP280;59246;59.102;37.928;2022-07-22T11:42:32;100056.63;;;34.39
71428;BMP280;59246;59.102;37.928;2022-07-22T11:44:58;100039.59;;;34.09
71428;BMP280;59246;59.102;37.928;2022-07-22T11:47:24;100042.13;;;34.17
71428;BMP280;59246;59.102;37.928;2022-07-22T11:49:50;100043.72;;;34.98
71428;BMP280;59246;59.102;37.928;2022-07-22T11:52:16;100024.25;;;37.89
71428;BMP280;59246;59.102;37.928;2022-07-22T11:54:43;100029.06;;;40.95
71428;BMP280;59246;59.102;37.928;2022-07-22T11:57:11;100029.38;;;42.79
71428;BMP280;59246;59.102;37.928;2022-07-22T11:59:37;100035.13;;;44.88
71428;BMP280;59246;59.102;37.928;2022-07-22T12:02:03;100020.00;;;46.42
71428;BMP280;59246;59.102;37.928;2022-07-22T12:04:30;100026.13;;;48.09
71428;BMP280;59246;59.102;37.928;2022-07-22T12:06:59;100021.31;;;49.25
71428;BMP280;59246;59.102;37.928;2022-07-22T12:09:30;100021.31;;;49.25
71428;BMP280;59246;59.102;37.928;2022-07-22T12:11:57;100022.31;;;51.00
71428;BMP280;59246;59.102;37.928;2022-07-22T12:14:28;100022.31;;;51.00
71428;BMP280;59246;59.102;37.928;2022-07-22T12:17:06;100023.66;;;51.16
71428;BMP280;59246;59.102;37.928;2022-07-22T12:19:34;100023.00;;;50.90
71428;BMP280;59246;59.102;37.928;2022-07-22T12:22:03;100023.00;;;50.90
71428;BMP280;59246;59.102;37.928;2022-07-22T12:24:35;100018.84;;;51.26
71428;BMP280;59246;59.102;37.928;2022-07-22T12:27:22;100019.06;;;51.38
71428;BMP280;59246;59.102;37.928;2022-07-22T12:29:49;100010.84;;;52.13
71428;BMP280;59246;59.102;37.928;2022-07-22T12:35:03;100022.28;;;53.77
71428;BMP280;59246;59.102;37.928;2022-07-22T12:37:42;100021.94;;;54.14
71428;BMP280;59246;59.102;37.928;2022-07-22T12:40:09;100021.56;;;54.50
71428;BMP280;59246;59.102;37.928;2022-07-22T12:42:38;100028.56;;;54.38
71428;BMP280;59246;59.102;37.928;2022-07-22T12:55:20;100008.28;;;53.50
71428;BMP280;59246;59.102;37.928;2022-07-22T12:57:50;100013.78;;;54.30
71428;BMP280;59246;59.102;37.928;2022-07-22T13:00:29;100030.03;;;54.39
71428;BMP280;59246;59.102;37.928;2022-07-22T13:02:57;100012.53;;;52.91
71428;BMP280;59246;59.102;37.928;2022-07-22T13:05:27;100011.28;;;51.55
71428;BMP280;59246;59.102;37.928;2022-07-22T13:07:53;100007.94;;;51.94
71428;BMP280;59246;59.102;37.928;2022-07-22T13:10:20;100007.94;;;51.94
71428;BMP280;59246;59.102;37.928;2022-07-22T13:12:46;100010.59;;;52.19
71428;BMP280;59246;59.102;37.928;2022-07-22T13:15:12;100021.50;;;51.86
71428;BMP280;59246;59.102;37.928;2022-07-22T13:17:39;100017.25;;;52.50
71428;BMP280;59246;59.102;37.928;2022-07-22T13:20:06;100011.91;;;52.54
71428;BMP280;59246;59.102;37.928;2022-07-22T13:22:32;100009.00;;;52.35
71428;BMP280;59246;59.102;37.928;2022-07-22T13:24:58;100016.47;;;51.49
71428;BMP280;59246;59.102;37.928;2022-07-22T13:27:24;100016.47;;;51.49
71428;BMP280;59246;59.102;37.928;2022-07-22T13:29:50;100005.66;;;50.86
71428;BMP280;59246;59.102;37.928;2022-07-22T13:32:16;100010.81;;;50.38
71428;BMP280;59246;59.102;37.928;2022-07-22T13:34:42;100021.97;;;49.63
71428;BMP280;59246;59.102;37.928;2022-07-22T13:37:07;100012.28;;;49.18
71428;BMP280;59246;59.102;37.928;2022-07-22T13:39:33;100006.59;;;49.41
71428;BMP280;59246;59.102;37.928;2022-07-22T13:41:59;100001.16;;;49.84
71428;BMP280;59246;59.102;37.928;2022-07-22T13:44:24;100003.19;;;49.58
71428;BMP280;59246;59.102;37.928;2022-07-22T13:46:50;100004.38;;;49.09
71428;BMP280;59246;59.102;37.928;2022-07-22T13:49:16;100004.03;;;48.90
71428;BMP280;59246;59.102;37.928;2022-07-22T13:51:43;100001.84;;;45.43
71428;BMP280;59246;59.102;37.928;2022-07-22T13:54:12;99995.78;;;42.90
71428;BMP280;59246;59.102;37.928;2022-07-22T13:56:42;99987.06;;;41.16
71428;BMP280;59246;59.102;37.928;2022-07-22T13:59:14;99989.88;;;39.96
71428;BMP280;59246;59.102;37.928;2022-07-22T14:01:43;99983.06;;;38.52